createdAt,value
2018-04-15T00:00:12.825Z,100821
2018-04-15T00:02:41.211Z,100821
2018-04-15T00:05:09.507Z,100817
2018-04-15T00:07:37.841Z,100820
2018-04-15T00:10:07.820Z,100817
2018-04-15T00:12:36.153Z,100822
2018-04-15T00:15:04.468Z,100834
2018-04-15T00:17:32.801Z,100865
2018-04-15T00:20:01.141Z,100858
2018-04-15T00:22:29.507Z,100865
2018-04-15T00:24:57.937Z,100856
2018-04-15T00:27:26.257Z,100857
2018-04-15T00:29:54.651Z,100857
2018-04-15T00:32:22.973Z,100865
2018-04-15T00:34:51.309Z,100860
2018-04-15T00:37:19.619Z,100858
2018-04-15T00:39:47.939Z,100859
2018-04-15T00:42:16.257Z,100854
2018-04-15T00:44:45.304Z,100848
2018-04-15T00:47:13.733Z,100842
2018-04-15T00:49:42.801Z,100843
2018-04-15T00:52:11.336Z,100837
2018-04-15T00:54:39.616Z,100831
2018-04-15T00:57:08.156Z,100837
2018-04-15T00:59:37.439Z,100836
2018-04-15T01:02:07.297Z,100826
2018-04-15T01:04:35.654Z,100822
2018-04-15T01:07:04.899Z,100821
2018-04-15T01:09:33.228Z,100821
2018-04-15T01:12:03.529Z,100820
2018-04-15T01:14:31.934Z,100815
2018-04-15T01:17:01.009Z,100814
2018-04-15T01:19:29.308Z,100815
2018-04-15T01:21:58.373Z,100811
2018-04-15T01:24:26.739Z,100812
2018-04-15T01:26:55.053Z,100805
2018-04-15T01:29:24.142Z,100801
2018-04-15T01:31:52.512Z,100797
2018-04-15T01:34:21.625Z,100793
2018-04-15T01:36:49.928Z,100796
2018-04-15T01:39:18.375Z,100792
2018-04-15T01:41:47.470Z,100785
2018-04-15T01:44:16.608Z,100786
2018-04-15T01:46:45.100Z,100782
2018-04-15T01:49:13.441Z,100780
2018-04-15T01:51:42.529Z,100780
2018-04-15T01:54:12.858Z,100778
2018-04-15T01:56:41.942Z,100781
2018-04-15T01:59:11.138Z,100782
2018-04-15T02:01:40.318Z,100778
2018-04-15T02:04:08.632Z,100775
2018-04-15T02:06:36.977Z,100775
2018-04-15T02:09:05.977Z,100773
2018-04-15T02:11:34.310Z,100772
2018-04-15T02:14:02.673Z,100771
2018-04-15T02:16:31.279Z,100767
2018-04-15T02:19:00.994Z,100769
2018-04-15T02:21:29.354Z,100771
2018-04-15T02:23:57.648Z,100763
2018-04-15T02:26:26.004Z,100770
2018-04-15T02:28:54.439Z,100769
2018-04-15T02:31:22.869Z,100766
2018-04-15T02:33:51.262Z,100766
2018-04-15T02:36:19.761Z,100767
2018-04-15T02:38:48.045Z,100761
2018-04-15T02:41:16.386Z,100760
2018-04-15T02:43:44.787Z,100761
2018-04-15T02:46:13.849Z,100763
2018-04-15T02:48:43.079Z,100762
2018-04-15T02:51:11.519Z,100762
2018-04-15T02:53:39.874Z,100760
2018-04-15T02:56:08.460Z,100762
2018-04-15T02:58:37.593Z,100760
2018-04-15T03:01:06.131Z,100760
2018-04-15T03:03:35.296Z,100762
2018-04-15T03:06:03.624Z,100761
2018-04-15T03:08:31.933Z,100760
2018-04-15T03:11:00.384Z,100762
2018-04-15T03:13:28.649Z,100754
2018-04-15T03:15:57.728Z,100756
2018-04-15T03:18:26.810Z,100750
2018-04-15T03:20:55.695Z,100752
2018-04-15T03:23:24.963Z,100745
2018-04-15T03:25:53.253Z,100741
2018-04-15T03:28:21.657Z,100735
2018-04-15T03:30:50.705Z,100739
2018-04-15T03:33:19.045Z,100736
2018-04-15T03:35:48.994Z,100715
2018-04-15T03:38:17.324Z,100731
2018-04-15T03:40:45.748Z,100729
2018-04-15T03:43:14.082Z,100728
2018-04-15T03:45:43.164Z,100727
2018-04-15T03:48:11.525Z,100728
2018-04-15T03:50:39.818Z,100724
2018-04-15T03:53:08.155Z,100725
2018-04-15T03:55:36.638Z,100722
2018-04-15T03:58:05.047Z,100726
2018-04-15T04:00:33.365Z,100729
2018-04-15T04:03:01.695Z,100719
2018-04-15T04:05:29.970Z,100720
2018-04-15T04:07:58.480Z,100724
2018-04-15T04:10:26.865Z,100717
2018-04-15T04:12:55.305Z,100719
2018-04-15T04:15:23.804Z,100720
2018-04-15T04:18:09.960Z,100716
2018-04-15T04:20:56.171Z,100724
2018-04-15T04:23:42.166Z,100725
2018-04-15T04:26:10.626Z,100725
2018-04-15T04:28:39.028Z,100733
2018-04-15T04:31:07.304Z,100731
2018-04-15T04:33:35.603Z,100734
2018-04-15T04:36:05.061Z,100737
2018-04-15T04:38:33.345Z,100734
2018-04-15T04:41:01.809Z,100735
2018-04-15T04:43:30.174Z,100736
2018-04-15T04:45:59.269Z,100737
2018-04-15T04:48:28.455Z,100733
2018-04-15T04:50:57.590Z,100737
2018-04-15T04:53:25.901Z,100739
2018-04-15T04:55:54.318Z,100738
2018-04-15T04:58:23.411Z,100738
2018-04-15T05:00:52.841Z,100741
2018-04-15T05:03:21.161Z,100741
2018-04-15T05:05:49.466Z,100741
2018-04-15T05:08:17.905Z,100748
2018-04-15T05:10:46.199Z,100748
2018-04-15T05:13:14.535Z,100750
2018-04-15T05:15:42.946Z,100744
2018-04-15T05:18:11.247Z,100744
2018-04-15T05:20:40.385Z,100742
2018-04-15T05:23:08.871Z,100747
2018-04-15T05:25:37.149Z,100742
2018-04-15T05:28:05.625Z,100744
2018-04-15T05:30:33.947Z,100747
2018-04-15T05:33:02.280Z,100743
2018-04-15T05:35:30.631Z,100733
2018-04-15T05:37:59.120Z,100752
2018-04-15T05:40:27.395Z,100751
2018-04-15T05:42:55.946Z,100743
2018-04-15T05:45:26.160Z,100743
2018-04-15T05:47:57.090Z,100748
2018-04-15T05:50:25.456Z,100747
2018-04-15T05:52:53.947Z,100738
2018-04-15T05:55:22.362Z,100739
2018-04-15T05:57:50.683Z,100738
2018-04-15T06:00:19.249Z,100733
2018-04-15T06:02:48.469Z,100734
2018-04-15T06:05:17.805Z,100730
2018-04-15T06:07:46.306Z,100729
2018-04-15T06:10:14.654Z,100718
2018-04-15T06:12:43.750Z,100718
2018-04-15T06:15:12.080Z,100722
2018-04-15T06:17:40.378Z,100718
2018-04-15T06:20:08.696Z,100718
2018-04-15T06:22:37.813Z,100714
2018-04-15T06:25:06.917Z,100711
2018-04-15T06:27:35.321Z,100706
2018-04-15T06:30:03.716Z,100702
2018-04-15T06:32:32.096Z,100700
2018-04-15T06:35:00.411Z,100701
2018-04-15T06:37:29.727Z,100699
2018-04-15T06:39:59.185Z,100690
2018-04-15T06:42:27.499Z,100686
2018-04-15T06:44:55.844Z,100683
2018-04-15T06:47:24.147Z,100673
2018-04-15T06:49:54.365Z,100668
2018-04-15T06:52:23.560Z,100661
2018-04-15T06:54:52.693Z,100659
2018-04-15T06:57:21.180Z,100652
2018-04-15T06:59:49.589Z,100641
2018-04-15T07:02:17.934Z,100646
2018-04-15T07:04:46.265Z,100645
2018-04-15T07:07:15.766Z,100638
2018-04-15T07:09:45.111Z,100636
2018-04-15T07:12:13.469Z,100639
2018-04-15T07:14:41.929Z,100634
2018-04-15T07:17:11.032Z,100628
2018-04-15T07:19:40.124Z,100630
2018-04-15T07:22:08.489Z,100633
2018-04-15T07:24:36.811Z,100625
2018-04-15T07:27:05.209Z,100615
2018-04-15T07:29:33.577Z,100610
2018-04-15T07:32:02.161Z,100605
2018-04-15T07:34:30.529Z,100603
2018-04-15T07:36:58.821Z,100600
2018-04-15T07:39:27.173Z,100594
2018-04-15T07:41:55.577Z,100593
2018-04-15T07:44:23.885Z,100586
2018-04-15T07:46:52.451Z,100585
2018-04-15T07:49:20.745Z,100576
2018-04-15T07:51:50.625Z,100577
2018-04-15T07:54:18.966Z,100579
2018-04-15T07:56:47.458Z,100574
2018-04-15T07:59:15.844Z,100569
2018-04-15T08:01:44.181Z,100566
2018-04-15T08:04:13.285Z,100564
2018-04-15T08:06:42.399Z,100552
2018-04-15T08:09:10.737Z,100555
2018-04-15T08:11:39.127Z,100557
2018-04-15T08:14:07.566Z,100563
2018-04-15T08:16:35.943Z,100561
2018-04-15T08:19:04.361Z,100561
2018-04-15T08:21:32.902Z,100561
2018-04-15T08:24:01.311Z,100556
2018-04-15T08:26:29.671Z,100552
2018-04-15T08:28:58.205Z,100550
2018-04-15T08:31:27.337Z,100552
2018-04-15T08:33:55.745Z,100554
2018-04-15T08:36:24.258Z,100550
2018-04-15T08:38:52.572Z,100545
2018-04-15T08:41:20.955Z,100544
2018-04-15T08:43:49.342Z,100546
2018-04-15T08:46:17.638Z,100546
2018-04-15T08:48:45.970Z,100537
2018-04-15T08:51:15.126Z,100534
2018-04-15T08:53:43.456Z,100536
2018-04-15T08:56:11.810Z,100536
2018-04-15T08:58:40.148Z,100531
2018-04-15T09:01:08.491Z,100530
2018-04-15T09:03:36.952Z,100526
2018-04-15T09:06:05.335Z,100531
2018-04-15T09:08:33.680Z,100526
2018-04-15T09:11:02.021Z,100522
2018-04-15T09:13:30.561Z,100523
2018-04-15T09:15:59.654Z,100518
2018-04-15T09:18:28.766Z,100520
2018-04-15T09:20:57.996Z,100519
2018-04-15T09:23:26.381Z,100521
2018-04-15T09:25:54.854Z,100515
2018-04-15T09:28:23.452Z,100518
2018-04-15T09:30:57.239Z,100511
2018-04-15T09:33:25.746Z,100505
2018-04-15T09:35:54.201Z,100499
2018-04-15T09:38:22.532Z,100489
2018-04-15T09:40:51.644Z,100486
2018-04-15T09:43:19.989Z,100481
2018-04-15T09:45:49.210Z,100480
2018-04-15T09:48:17.673Z,100484
2018-04-15T09:50:46.936Z,100486
2018-04-15T09:53:15.418Z,100480
2018-04-15T09:55:43.946Z,100488
2018-04-15T09:58:13.170Z,100483
2018-04-15T10:00:41.712Z,100478
2018-04-15T10:03:10.104Z,100475
2018-04-15T10:05:39.196Z,100474
2018-04-15T10:08:13.177Z,100469
2018-04-15T10:10:41.602Z,100470
2018-04-15T10:13:09.934Z,100463
2018-04-15T10:15:38.329Z,100465
2018-04-15T10:18:06.791Z,100468
2018-04-15T10:20:35.143Z,100471
2018-04-15T10:23:03.450Z,100463
2018-04-15T10:25:31.954Z,100460
2018-04-15T10:28:01.054Z,100460
2018-04-15T10:30:29.490Z,100461
2018-04-15T10:32:58.064Z,100457
2018-04-15T10:35:26.460Z,100453
2018-04-15T10:37:54.790Z,100447
2018-04-15T10:40:23.114Z,100451
2018-04-15T10:42:51.612Z,100447
2018-04-15T10:45:19.924Z,100441
2018-04-15T10:47:48.350Z,100439
2018-04-15T10:50:16.753Z,100445
2018-04-15T10:52:45.190Z,100451
2018-04-15T10:55:13.580Z,100443
2018-04-15T10:57:41.947Z,100444
2018-04-15T11:00:10.446Z,100437
2018-04-15T11:02:40.486Z,100433
2018-04-15T11:05:08.867Z,100430
2018-04-15T11:07:37.394Z,100428
2018-04-15T11:10:05.876Z,100429
2018-04-15T11:12:34.206Z,100427
2018-04-15T11:15:02.948Z,100423
2018-04-15T11:17:31.274Z,100425
2018-04-15T11:19:59.706Z,100417
2018-04-15T11:22:28.101Z,100416
2018-04-15T11:24:56.561Z,100412
2018-04-15T11:27:24.866Z,100414
2018-04-15T11:29:53.390Z,100411
2018-04-15T11:32:22.512Z,100411
2018-04-15T11:34:50.981Z,100415
2018-04-15T11:37:19.343Z,100417
2018-04-15T11:39:48.595Z,100411
2018-04-15T11:42:16.975Z,100414
2018-04-15T11:44:45.489Z,100406
2018-04-15T11:47:14.069Z,100409
2018-04-15T11:49:42.407Z,100407
2018-04-15T11:52:10.731Z,100400
2018-04-15T11:54:39.105Z,100405
2018-04-15T11:57:07.522Z,100401
2018-04-15T11:59:35.993Z,100404
2018-04-15T12:02:05.352Z,100403
2018-04-15T12:04:34.771Z,100405
2018-04-15T12:07:05.173Z,100401
2018-04-15T12:09:33.520Z,100402
2018-04-15T12:12:02.289Z,100398
2018-04-15T12:14:30.714Z,100387
2018-04-15T12:16:59.174Z,100383
2018-04-15T12:19:27.605Z,100375
2018-04-15T12:21:56.757Z,100376
2018-04-15T12:24:25.111Z,100377
2018-04-15T12:26:53.442Z,100371
2018-04-15T12:29:21.823Z,100367
2018-04-15T12:31:50.185Z,100364
2018-04-15T12:34:18.637Z,100364
2018-04-15T12:36:47.124Z,100363
2018-04-15T12:39:15.612Z,100361
2018-04-15T12:41:44.032Z,100358
2018-04-15T12:44:12.357Z,100354
2018-04-15T12:46:40.644Z,100342
2018-04-15T12:49:09.959Z,100340
2018-04-15T12:51:38.488Z,100344
2018-04-15T12:54:07.657Z,100334
2018-04-15T12:56:36.050Z,100330
2018-04-15T12:59:05.146Z,100328
2018-04-15T13:01:34.468Z,100324
2018-04-15T13:04:02.864Z,100321
2018-04-15T13:06:31.406Z,100322
2018-04-15T13:09:00.452Z,100312
2018-04-15T13:11:28.948Z,100305
2018-04-15T13:13:58.069Z,100302
2018-04-15T13:16:27.185Z,100306
2018-04-15T13:18:56.337Z,100304
2018-04-15T13:21:24.687Z,100299
2018-04-15T13:23:53.163Z,100296
2018-04-15T13:26:21.579Z,100302
2018-04-15T13:28:49.934Z,100300
2018-04-15T13:31:18.307Z,100293
2018-04-15T13:33:46.637Z,100279
2018-04-15T13:36:15.001Z,100287
2018-04-15T13:38:44.658Z,100280
2018-04-15T13:41:12.979Z,100286
2018-04-15T13:43:41.427Z,100283
2018-04-15T13:46:09.814Z,100284
2018-04-15T13:48:38.175Z,100279
2018-04-15T13:51:06.673Z,100280
2018-04-15T13:53:35.118Z,100270
2018-04-15T13:56:04.229Z,100272
2018-04-15T13:58:32.614Z,100275
2018-04-15T14:01:00.972Z,100268
2018-04-15T14:03:30.129Z,100268
2018-04-15T14:05:58.639Z,100264
2018-04-15T14:08:28.319Z,100267
2018-04-15T14:10:56.674Z,100269
2018-04-15T14:13:26.036Z,100264
2018-04-15T14:15:55.174Z,100253
2018-04-15T14:18:23.545Z,100259
2018-04-15T14:20:51.917Z,100259
2018-04-15T14:23:20.275Z,100259
2018-04-15T14:25:48.642Z,100251
2018-04-15T14:28:17.789Z,100249
2018-04-15T14:30:46.633Z,100242
2018-04-15T14:33:15.883Z,100243
2018-04-15T14:35:44.271Z,100242
2018-04-15T14:38:12.718Z,100237
2018-04-15T14:40:41.055Z,100233
2018-04-15T14:43:10.372Z,100236
2018-04-15T14:45:38.982Z,100237
2018-04-15T14:48:07.457Z,100228
2018-04-15T14:50:35.853Z,100227
2018-04-15T14:53:04.212Z,100232
2018-04-15T14:55:32.708Z,100224
2018-04-15T14:58:01.182Z,100219
2018-04-15T15:00:29.549Z,100218
2018-04-15T15:02:57.870Z,100215
2018-04-15T15:05:26.258Z,100207
2018-04-15T15:07:54.700Z,100205
2018-04-15T15:10:24.704Z,100208
2018-04-15T15:12:53.033Z,100204
2018-04-15T15:15:21.406Z,100195
2018-04-15T15:17:49.781Z,100202
2018-04-15T15:20:18.118Z,100202
2018-04-15T15:22:46.731Z,100204
2018-04-15T15:25:15.078Z,100204
2018-04-15T15:27:43.505Z,100201
2018-04-15T15:30:11.971Z,100205
2018-04-15T15:32:40.619Z,100205
2018-04-15T15:35:09.063Z,100206
2018-04-15T15:37:38.184Z,100206
2018-04-15T15:40:07.504Z,100206
2018-04-15T15:42:35.863Z,100203
2018-04-15T15:45:04.346Z,100203
2018-04-15T15:47:32.697Z,100200
2018-04-15T15:50:02.007Z,100196
2018-04-15T15:52:31.425Z,100194
2018-04-15T15:54:59.961Z,100195
2018-04-15T15:57:28.335Z,100200
2018-04-15T15:59:56.926Z,100199
2018-04-15T16:02:26.350Z,100200
2018-04-15T16:04:54.632Z,100195
2018-04-15T16:07:23.739Z,100198
2018-04-15T16:09:52.972Z,100196
2018-04-15T16:12:21.330Z,100196
2018-04-15T16:14:49.688Z,100194
2018-04-15T16:17:18.947Z,100191
2018-04-15T16:19:47.294Z,100196
2018-04-15T16:22:15.648Z,100196
2018-04-15T16:24:44.769Z,100203
2018-04-15T16:27:13.107Z,100201
2018-04-15T16:29:42.268Z,100208
2018-04-15T16:32:10.719Z,100205
2018-04-15T16:34:39.071Z,100204
2018-04-15T16:37:08.217Z,100199
2018-04-15T16:39:36.629Z,100203
2018-04-15T16:42:06.553Z,100203
2018-04-15T16:44:35.057Z,100205
2018-04-15T16:47:03.386Z,100204
2018-04-15T16:49:32.816Z,100206
2018-04-15T16:52:02.150Z,100207
2018-04-15T16:54:30.585Z,100209
2018-04-15T16:56:59.068Z,100213
2018-04-15T16:59:28.458Z,100219
2018-04-15T17:01:57.134Z,100221
2018-04-15T17:04:25.503Z,100220
2018-04-15T17:06:53.940Z,100221
2018-04-15T17:09:22.337Z,100224
2018-04-15T17:11:50.893Z,100224
2018-04-15T17:14:20.209Z,100224
2018-04-15T17:16:48.561Z,100226
2018-04-15T17:19:17.734Z,100224
2018-04-15T17:21:46.904Z,100223
2018-04-15T17:24:15.241Z,100224
2018-04-15T17:26:44.406Z,100221
2018-04-15T17:29:12.749Z,100226
2018-04-15T17:31:41.438Z,100225
2018-04-15T17:34:09.922Z,100226
2018-04-15T17:36:40.199Z,100227
2018-04-15T17:39:09.549Z,100233
2018-04-15T17:41:37.912Z,100234
2018-04-15T17:44:06.275Z,100230
2018-04-15T17:46:34.706Z,100235
2018-04-15T17:49:03.232Z,100243
2018-04-15T17:51:32.595Z,100251
2018-04-15T17:54:01.254Z,100261
2018-04-15T17:56:29.630Z,100257
2018-04-15T17:58:58.227Z,100260
2018-04-15T18:01:27.173Z,100261
2018-04-15T18:06:30.815Z,100257
2018-04-15T18:08:59.530Z,100255
2018-04-15T18:11:27.984Z,100252
2018-04-15T18:13:56.389Z,100263
2018-04-15T18:16:24.915Z,100264
2018-04-15T18:18:54.131Z,100266
2018-04-15T18:21:22.624Z,100258
2018-04-15T18:23:52.690Z,100260
2018-04-15T18:26:21.204Z,100262
2018-04-15T18:28:49.826Z,100265
2018-04-15T18:31:18.185Z,100264
2018-04-15T18:33:46.804Z,100270
2018-04-15T18:36:15.360Z,100278
2018-04-15T18:38:43.790Z,100283
2018-04-15T18:41:13.205Z,100290
2018-04-15T18:43:42.396Z,100295
2018-04-15T18:46:11.756Z,100290
2018-04-15T18:48:40.211Z,100294
2018-04-15T18:51:08.578Z,100296
2018-04-15T18:53:36.977Z,100297
2018-04-15T18:56:05.427Z,100299
2018-04-15T18:58:34.733Z,100301
2018-04-15T19:01:03.082Z,100303
2018-04-15T19:03:31.626Z,100310
2018-04-15T19:06:00.096Z,100308
2018-04-15T19:08:28.808Z,100307
2018-04-15T19:10:57.208Z,100314
2018-04-15T19:13:25.655Z,100314
2018-04-15T19:15:54.133Z,100318
2018-04-15T19:18:22.593Z,100316
2018-04-15T19:20:51.019Z,100317
2018-04-15T19:23:20.277Z,100317
2018-04-15T19:25:48.670Z,100316
2018-04-15T19:28:17.210Z,100310
2018-04-15T19:30:45.839Z,100312
2018-04-15T19:33:14.172Z,100313
2018-04-15T19:35:43.512Z,100308
2018-04-15T19:38:11.874Z,100311
2018-04-15T19:40:40.361Z,100306
2018-04-15T19:43:08.744Z,100303
2018-04-15T19:45:37.174Z,100307
2018-04-15T19:48:05.535Z,100304
2018-04-15T19:50:33.970Z,100309
2018-04-15T19:53:02.358Z,100310
2018-04-15T19:55:31.643Z,100309
2018-04-15T19:57:59.998Z,100309
2018-04-15T20:00:29.211Z,100307
2018-04-15T20:02:57.639Z,100300
2018-04-15T20:05:26.014Z,100296
2018-04-15T20:07:54.385Z,100292
2018-04-15T20:10:22.709Z,100292
2018-04-15T20:12:51.876Z,100284
2018-04-15T20:15:20.265Z,100282
2018-04-15T20:17:48.658Z,100280
2018-04-15T20:20:17.246Z,100273
2018-04-15T20:22:46.376Z,100268
2018-04-15T20:25:14.775Z,100266
2018-04-15T20:27:43.265Z,100269
2018-04-15T20:30:11.739Z,100268
2018-04-15T20:32:40.186Z,100276
2018-04-15T20:35:08.526Z,100275
2018-04-15T20:37:37.005Z,100274
2018-04-15T20:40:05.515Z,100279
2018-04-15T20:42:34.739Z,100282
2018-04-15T20:45:03.138Z,100287
2018-04-15T20:47:31.476Z,100286
2018-04-15T20:50:00.083Z,100285
2018-04-15T20:52:28.531Z,100286
2018-04-15T20:54:58.808Z,100295
2018-04-15T20:57:27.180Z,100296
2018-04-15T20:59:55.726Z,100309
2018-04-15T21:02:24.121Z,100318
2018-04-15T21:04:52.737Z,100323
2018-04-15T21:07:21.079Z,100332
2018-04-15T21:09:49.478Z,100331
2018-04-15T21:12:17.800Z,100335
2018-04-15T21:14:46.177Z,100333
2018-04-15T21:17:15.377Z,100336
2018-04-15T21:19:44.156Z,100332
2018-04-15T21:22:13.335Z,100332
2018-04-15T21:24:41.680Z,100335
2018-04-15T21:27:09.975Z,100341
2018-04-15T21:29:38.331Z,100344
2018-04-15T21:32:06.700Z,100318
2018-04-15T21:34:35.175Z,100338
2018-04-15T21:37:04.373Z,100342
2018-04-15T21:39:32.704Z,100341
2018-04-15T21:42:01.159Z,100337
2018-04-15T21:44:29.728Z,100335
2018-04-15T21:46:58.116Z,100331
2018-04-15T21:49:26.385Z,100324
2018-04-15T21:51:54.846Z,100316
2018-04-15T21:54:23.973Z,100328
2018-04-15T21:56:52.429Z,100324
2018-04-15T21:59:20.789Z,100325
2018-04-15T22:01:50.236Z,100323
2018-04-15T22:04:18.541Z,100321
2018-04-15T22:06:46.869Z,100320
2018-04-15T22:09:15.177Z,100323
2018-04-15T22:12:01.213Z,100322
2018-04-15T22:14:30.354Z,100328
2018-04-15T22:16:58.836Z,100323
2018-04-15T22:19:27.168Z,100321
2018-04-15T22:21:56.342Z,100330
2018-04-15T22:24:24.670Z,100330
2018-04-15T22:26:53.054Z,100326
2018-04-15T22:29:21.355Z,100324
2018-04-15T22:31:49.716Z,100321
2018-04-15T22:34:17.954Z,100329
2018-04-15T22:36:47.005Z,100325
2018-04-15T22:39:15.355Z,100330
2018-04-15T22:41:43.663Z,100330
2018-04-15T22:44:11.955Z,100322
2018-04-15T22:46:40.269Z,100323
2018-04-15T22:49:14.730Z,100317
2018-04-15T22:51:43.045Z,100314
2018-04-15T22:54:13.220Z,100315
2018-04-15T22:56:43.408Z,100315
2018-04-15T22:59:11.901Z,100312
2018-04-15T23:01:40.361Z,100309
2018-04-15T23:04:08.710Z,100313
2018-04-15T23:06:38.679Z,100319
2018-04-15T23:09:06.956Z,100307
2018-04-15T23:11:35.407Z,100308
2018-04-15T23:14:04.581Z,100313
2018-04-15T23:16:32.897Z,100319
2018-04-15T23:19:01.192Z,100315
2018-04-15T23:21:31.409Z,100317
2018-04-15T23:23:59.719Z,100319
2018-04-15T23:26:28.027Z,100324
2018-04-15T23:28:57.107Z,100326
2018-04-15T23:31:25.456Z,100328
2018-04-15T23:33:53.801Z,100336
2018-04-15T23:36:22.082Z,100334
2018-04-15T23:38:50.517Z,100338
2018-04-15T23:41:18.824Z,100331
2018-04-15T23:43:48.175Z,100325
2018-04-15T23:46:16.726Z,100327
2018-04-15T23:48:45.049Z,100320
2018-04-15T23:51:13.516Z,100325
2018-04-15T23:53:41.936Z,100323
2018-04-15T23:56:10.276Z,100317
2018-04-15T23:58:39.402Z,100327
